Ten Mile, TN

3:47 AM EDT on October 25, 2014 (GMT -0400)
Watts Bar Lake | Change Station
CLOSE
Current Station
Personal Weather Station
Location: Ten Mile, TN
Elevation: 767 ft
Nearby Weather Stations

Elev 767 ft 35.69 °N, 84.70 °W | Updated 1 minute ago

Clear
Clear
44.4 °F
Feels Like 44 °F
N
0.0
Wind Variable Wind from SSE
Gusts 0.0 mph

Today
High -- | Low -- °F
--% Chance of Precip.
Yesterday
High -- | Low -- °F
Precip. -- in
7:54 AM 6:50 PM
New Moon, 2% visible
Pressure 30.09 in
Visibility 10.0 miles
Clouds Clear
Windchill 44 °F
Dew Point 43 °F
Humidity 95%
Rainfall 0.00 in
Snow Depth Not available.
UV 0 out of 12
Pollen .90 out of 12
Ozone Good
PM2.5 Good
Flu Activity No Activity
METAR KMMI 250735Z AUTO 00000KT 10SM CLR 03/03 A3009 RMK

More Conditions Fewer Conditions

Pressure 30.09 in
Visibility 10.0 miles
Clouds Clear
Windchill 44 °F
Dew Point 43 °F
Humidity 95%
Rainfall 0.00 in
Snow Depth Not available.
UV 0 out of 12
Pollen .90 out of 12
Ozone Good
PM2.5 Good
Flu Activity No Activity
METAR KMMI 250735Z AUTO 00000KT 10SM CLR 03/03 A3009 RMK

More Conditions Fewer Conditions

10-Day Weather Forecast

Almanac

Astronomy

Oct. 25, 2014 Rise Set
Actual Time 7:54 AM EDT 6:50 PM EDT
Civil Twilight 7:28 AM EDT 7:17 PM EDT
Nautical Twilight 6:58 AM EDT 7:46 PM EDT
Astronomical Twilight 6:28 AM EDT 8:16 PM EDT
Moon 9:29 AM EDT 8:16 PM EDT
Length of Visible Light 11h 48m
Length of Day
10h 56m
Tomorrow will be 2m 3s shorter.
New Moon, 2% of the Moon is Illuminated
Today
New Moon
Oct 30
First Quarter
Nov 6
Full
Nov 14
Last Quarter
Nov 22
New

Today's Extremes

State Highs State Lows

Community

WunderPhotos

Upload Photos

1,764,791 photos uploaded!

Nearby

Air Quality

  Air Quality AQ Index Pollutant
Yesterday Good
PM2.5
Yesterday Good
OZONE
Current Good
PM2.5
Current Good
OZONE
Saturday Moderate
PM2.5
Saturday Good
OZONE
Sunday Moderate
PM2.5
Sunday Good
OZONE

Snow Depth

Station Depth Elevation
No new snow has been reported.

Earthquake Activity

City Distance Mag. Time & Date
No recent earthquake activity has been reported nearby.
Minimum magnitude displayed is 2.5.

Coastal Water Temperatures

Place Temperature
No Stations Reporting

Nearby Weather Stations